Time;durP1;ratioP1;P1;durP2;ratioP2;P2;SDS_P1;SDS_P2;PMS_P1;PMS_P2;Temp;Humidity;BMP_temperature;BMP_pressure;BME280_temperature;BME280_humidity;BME280_pressure;Samples;Min_cycle;Max_cycle;Signal;HPM_P1;HPM_P2
2022/08/20 00:01:17;;;;;;;7.50;6.67;;;18.20;99.90;;;;;;4996228;28;20838;-69
2022/08/20 00:03:44;;;;;;;7.57;5.87;;;18.20;99.90;;;;;;4973455;28;20436;-66
2022/08/20 00:06:14;;;;;;;7.10;6.37;;;18.20;99.90;;;;;;5007884;28;20455;-66
2022/08/20 00:08:42;;;;;;;7.70;6.20;;;18.20;99.90;;;;;;5012348;28;20439;-66
2022/08/20 00:11:13;;;;;;;7.70;6.90;;;18.20;99.90;;;;;;4996361;28;20487;-66
2022/08/20 00:13:49;;;;;;;8.90;8.00;;;18.20;99.90;;;;;;4996827;28;20443;-66
2022/08/20 00:16:23;;;;;;;7.30;5.93;;;18.20;99.90;;;;;;5012850;28;20529;-66
2022/08/20 00:18:53;;;;;;;7.50;6.73;;;18.20;99.90;;;;;;5007100;28;20444;-66
2022/08/20 00:21:21;;;;;;;8.03;7.03;;;18.20;99.90;;;;;;4996575;28;20523;-66
2022/08/20 00:23:55;;;;;;;7.67;6.90;;;18.20;99.90;;;;;;5003992;28;20463;-66
2022/08/20 00:26:33;;;;;;;8.70;7.50;;;18.10;99.90;;;;;;5016167;28;20443;-66
2022/08/20 00:29:03;;;;;;;8.73;7.63;;;18.10;99.90;;;;;;5006893;28;20443;-67
2022/08/20 00:31:30;;;;;;;8.47;7.67;;;18.20;99.90;;;;;;4996604;28;20526;-66
2022/08/20 00:33:57;;;;;;;8.73;7.83;;;18.20;99.90;;;;;;5003921;28;20497;-66
2022/08/20 00:36:25;;;;;;;10.47;8.03;;;18.20;99.90;;;;;;5015977;28;20442;-66
2022/08/20 00:38:52;;;;;;;10.40;8.60;;;18.20;99.90;;;;;;5008433;28;20443;-66
2022/08/20 00:41:24;;;;;;;12.00;8.70;;;18.20;99.90;;;;;;4995991;28;20487;-66
2022/08/20 00:44:03;;;;;;;8.90;8.07;;;18.30;99.90;;;;;;5005746;28;20501;-66
2022/08/20 00:46:33;;;;;;;12.93;9.70;;;18.30;99.90;;;;;;5015961;28;20960;-66
2022/08/20 00:49:04;;;;;;;10.53;8.70;;;18.30;99.90;;;;;;5004785;28;20448;-66
2022/08/20 00:51:35;;;;;;;11.83;10.63;;;18.40;99.90;;;;;;4995894;28;20440;-66
2022/08/20 00:54:06;;;;;;;13.00;11.10;;;18.40;99.90;;;;;;4995687;28;20910;-66
2022/08/20 00:56:34;;;;;;;13.20;11.80;;;18.40;99.90;;;;;;5012824;28;20785;-66
2022/08/20 00:59:04;;;;;;;11.43;10.10;;;18.40;99.90;;;;;;5005454;28;20446;-66
2022/08/20 01:01:34;;;;;;;13.70;12.00;;;18.50;99.90;;;;;;4996083;28;20548;-66
2022/08/20 01:04:01;;;;;;;12.23;10.93;;;18.50;99.90;;;;;;5005078;28;20957;-66
2022/08/20 01:06:30;;;;;;;14.33;12.83;;;18.50;99.90;;;;;;5015470;28;20443;-66
2022/08/20 01:09:01;;;;;;;14.43;12.20;;;18.50;99.90;;;;;;5006828;28;20440;-66
2022/08/20 01:11:32;;;;;;;14.33;12.73;;;18.50;99.90;;;;;;4995456;28;20530;-66
2022/08/20 01:14:00;;;;;;;14.80;12.70;;;18.50;99.90;;;;;;4995251;28;20444;-66
2022/08/20 01:16:31;;;;;;;14.37;12.87;;;18.40;99.90;;;;;;4995020;28;20797;-67
2022/08/20 01:19:07;;;;;;;16.87;12.20;;;18.50;99.90;;;;;;4995742;28;20480;-66
2022/08/20 01:21:34;;;;;;;14.83;13.23;;;18.40;99.90;;;;;;4998670;28;20477;-68
2022/08/20 01:24:06;;;;;;;17.60;12.00;;;18.40;99.90;;;;;;5014872;28;20459;-68
2022/08/20 01:26:39;;;;;;;15.70;12.70;;;18.40;99.90;;;;;;4996249;28;20447;-66
2022/08/20 01:29:10;;;;;;;14.07;12.57;;;18.40;99.90;;;;;;4995134;28;20454;-66
2022/08/20 01:31:43;;;;;;;15.70;13.93;;;18.40;99.90;;;;;;5012789;28;20876;-66
2022/08/20 01:34:13;;;;;;;15.60;12.60;;;18.40;99.90;;;;;;5015155;28;20904;-66
2022/08/20 01:36:42;;;;;;;15.23;13.60;;;18.40;99.90;;;;;;4996350;28;20453;-66
2022/08/20 01:39:13;;;;;;;14.30;13.00;;;18.40;99.90;;;;;;4995089;28;20446;-67
2022/08/20 01:41:52;;;;;;;15.47;13.13;;;18.40;99.90;;;;;;4994531;28;20487;-66
2022/08/20 01:44:20;;;;;;;15.27;13.77;;;18.40;99.90;;;;;;4995553;28;20458;-66
2022/08/20 01:46:50;;;;;;;15.47;13.83;;;18.40;99.90;;;;;;4994531;28;20442;-66
2022/08/20 01:49:20;;;;;;;14.37;12.30;;;18.40;99.90;;;;;;4995042;28;20443;-66
2022/08/20 01:51:49;;;;;;;16.57;12.70;;;18.40;99.90;;;;;;5006254;28;20527;-66
2022/08/20 01:54:17;;;;;;;16.23;13.70;;;18.40;99.90;;;;;;5014480;28;20443;-66
2022/08/20 01:56:56;;;;;;;14.23;12.83;;;18.40;99.90;;;;;;5014618;28;20478;-66
2022/08/20 01:59:23;;;;;;;15.57;12.70;;;18.40;99.90;;;;;;5013411;28;20446;-66
2022/08/20 02:01:51;;;;;;;14.40;13.00;;;18.40;99.90;;;;;;5006594;28;20475;-66
2022/08/20 02:04:19;;;;;;;15.43;13.83;;;18.30;99.90;;;;;;4994727;28;20435;-66
2022/08/20 02:06:50;;;;;;;15.93;13.97;;;18.30;99.90;;;;;;4994560;28;20510;-66
2022/08/20 02:09:17;;;;;;;14.77;13.20;;;18.20;99.90;;;;;;4994320;28;20451;-66
2022/08/20 02:11:46;;;;;;;15.37;13.40;;;18.10;99.90;;;;;;4994359;28;20499;-66
2022/08/20 02:14:15;;;;;;;15.37;13.87;;;18.10;99.90;;;;;;4994516;28;20444;-66
2022/08/20 02:16:46;;;;;;;15.97;14.27;;;18.10;99.90;;;;;;4998042;28;20446;-66
2022/08/20 02:19:18;;;;;;;13.77;12.37;;;18.10;99.90;;;;;;5013962;28;20431;-66
2022/08/20 02:21:50;;;;;;;14.47;12.27;;;18.20;99.90;;;;;;5009210;28;20816;-67
2022/08/20 02:24:23;;;;;;;14.80;13.20;;;18.20;99.90;;;;;;4994306;28;20996;-66
2022/08/20 02:26:50;;;;;;;14.20;12.03;;;18.20;99.90;;;;;;4975014;28;20460;-66
2022/08/20 02:29:19;;;;;;;13.97;12.47;;;18.20;99.90;;;;;;4974879;28;20444;-66
2022/08/20 02:31:47;;;;;;;16.33;14.67;;;18.20;99.90;;;;;;4993391;28;20446;-66
2022/08/20 02:34:15;;;;;;;14.07;12.20;;;18.20;99.90;;;;;;4993279;28;20444;-66
2022/08/20 02:36:44;;;;;;;15.90;14.30;;;18.20;99.90;;;;;;5013641;28;20435;-66
2022/08/20 02:39:13;;;;;;;15.63;13.97;;;18.20;99.90;;;;;;5013748;28;20446;-66
2022/08/20 02:41:41;;;;;;;15.60;14.00;;;18.20;99.90;;;;;;4994206;28;20478;-66
2022/08/20 02:44:09;;;;;;;16.10;14.40;;;18.30;99.90;;;;;;4993972;28;20439;-66
2022/08/20 02:46:43;;;;;;;13.33;12.00;;;18.30;99.90;;;;;;4993487;28;20853;-66
2022/08/20 02:49:10;;;;;;;13.90;12.40;;;18.30;99.90;;;;;;4993749;28;20428;-66
2022/08/20 02:51:37;;;;;;;16.63;12.90;;;18.30;99.90;;;;;;4993683;28;20444;-66
2022/08/20 02:54:05;;;;;;;15.20;13.47;;;18.40;99.90;;;;;;4993841;28;20444;-66
2022/08/20 02:56:35;;;;;;;17.20;13.17;;;18.40;99.90;;;;;;5009569;28;20811;-67
2022/08/20 02:59:02;;;;;;;14.90;13.30;;;18.40;99.90;;;;;;5013284;28;21016;-66
2022/08/20 03:01:30;;;;;;;15.47;13.70;;;18.40;99.90;;;;;;4996792;28;20906;-66
2022/08/20 03:03:59;;;;;;;14.80;13.30;;;18.40;99.90;;;;;;5013319;28;20449;-66
2022/08/20 03:06:26;;;;;;;15.33;13.70;;;18.30;99.90;;;;;;4994898;28;20443;-66
2022/08/20 03:08:54;;;;;;;14.47;12.23;;;18.30;99.90;;;;;;4993467;28;20447;-66
2022/08/20 03:11:21;;;;;;;17.23;14.40;;;18.30;99.90;;;;;;5009841;28;20501;-67
2022/08/20 03:13:49;;;;;;;17.33;13.43;;;18.20;99.90;;;;;;5013251;28;20444;-66
2022/08/20 03:16:16;;;;;;;15.33;13.60;;;18.30;99.90;;;;;;4997282;28;20450;-67
2022/08/20 03:18:45;;;;;;;14.97;13.37;;;18.30;99.90;;;;;;4993405;28;20448;-66
2022/08/20 03:21:14;;;;;;;15.83;13.43;;;18.30;99.90;;;;;;5006499;28;20479;-66
2022/08/20 03:23:44;;;;;;;15.90;13.20;;;18.30;99.90;;;;;;4973840;28;20475;-66
2022/08/20 03:26:13;;;;;;;13.03;11.67;;;18.30;99.90;;;;;;5001349;28;20445;-66
2022/08/20 03:28:41;;;;;;;15.60;14.07;;;18.20;99.90;;;;;;5012789;28;21004;-66
2022/08/20 03:31:09;;;;;;;12.80;11.10;;;18.20;99.90;;;;;;4999680;28;20447;-72
2022/08/20 03:33:38;;;;;;;13.03;11.17;;;18.20;99.90;;;;;;4992905;28;20537;-67
2022/08/20 03:36:06;;;;;;;13.87;12.47;;;18.20;99.90;;;;;;4993171;28;20440;-66
2022/08/20 03:38:35;;;;;;;13.70;12.30;;;18.20;99.90;;;;;;4991953;28;20440;-66
2022/08/20 03:41:03;;;;;;;13.60;12.20;;;18.20;99.90;;;;;;4993162;28;20825;-66
2022/08/20 03:43:31;;;;;;;14.30;12.80;;;18.20;99.90;;;;;;4992777;28;21027;-66
2022/08/20 03:45:59;;;;;;;13.00;11.60;;;18.30;99.90;;;;;;4992721;28;20927;-66
2022/08/20 03:48:26;;;;;;;12.60;11.33;;;18.20;99.90;;;;;;4997749;28;20490;-66
2022/08/20 03:50:54;;;;;;;13.83;12.43;;;18.30;99.90;;;;;;5012710;28;20453;-66
2022/08/20 03:53:21;;;;;;;13.87;11.43;;;18.30;99.90;;;;;;5008365;28;20444;-66
2022/08/20 03:55:53;;;;;;;14.20;12.13;;;18.30;99.90;;;;;;5001428;28;20441;-66
2022/08/20 03:58:20;;;;;;;13.23;11.70;;;18.30;99.90;;;;;;5008980;28;20436;-67
2022/08/20 04:00:49;;;;;;;13.60;11.27;;;18.30;99.90;;;;;;4992862;28;20529;-66
2022/08/20 04:03:17;;;;;;;11.67;10.40;;;18.30;99.90;;;;;;4992114;28;20479;-66
2022/08/20 04:05:45;;;;;;;14.23;12.80;;;18.40;99.90;;;;;;4992984;28;20440;-66
2022/08/20 04:08:15;;;;;;;13.90;11.60;;;18.40;99.90;;;;;;4992513;28;20502;-66
2022/08/20 04:10:45;;;;;;;13.93;11.63;;;18.40;99.90;;;;;;4992785;28;20981;-66
2022/08/20 04:13:15;;;;;;;14.90;12.67;;;18.40;99.90;;;;;;4992490;28;20444;-66
2022/08/20 04:15:44;;;;;;;13.53;11.73;;;18.40;99.90;;;;;;4993128;28;20440;-67
2022/08/20 04:18:12;;;;;;;15.17;13.57;;;18.40;99.90;;;;;;5006346;28;20439;-66
2022/08/20 04:20:42;;;;;;;12.20;11.00;;;18.50;99.90;;;;;;5012131;28;20461;-66
2022/08/20 04:23:09;;;;;;;13.20;11.90;;;18.50;99.90;;;;;;4996847;28;20462;-66
2022/08/20 04:25:40;;;;;;;14.10;11.90;;;18.50;99.90;;;;;;4995261;28;20445;-66
2022/08/20 04:28:25;;;;;;;14.90;11.70;;;18.50;99.90;;;;;;4992718;28;20451;-66
2022/08/20 04:30:55;;;;;;;12.37;11.07;;;18.50;99.90;;;;;;4992086;28;20514;-66
2022/08/20 04:33:24;;;;;;;14.33;11.47;;;18.60;99.90;;;;;;4992778;28;20441;-66
2022/08/20 04:35:52;;;;;;;15.10;13.50;;;18.60;99.90;;;;;;4998457;28;20477;-66
2022/08/20 04:38:22;;;;;;;15.07;12.40;;;18.60;99.90;;;;;;5012196;28;20554;-66
2022/08/20 04:40:59;;;;;;;15.43;12.73;;;18.60;99.90;;;;;;5006153;28;20436;-67
2022/08/20 04:43:29;;;;;;;15.50;11.60;;;18.60;99.90;;;;;;4992756;28;20506;-66
2022/08/20 04:46:01;;;;;;;16.07;13.63;;;18.60;99.90;;;;;;5003689;28;20529;-66
2022/08/20 04:48:29;;;;;;;13.97;12.13;;;18.60;99.90;;;;;;5012120;28;20975;-67
2022/08/20 04:50:57;;;;;;;13.50;12.10;;;18.60;99.90;;;;;;4999382;28;20498;-66
2022/08/20 04:53:26;;;;;;;14.57;13.10;;;18.60;99.90;;;;;;4992578;28;20432;-66
2022/08/20 04:55:56;;;;;;;14.50;13.00;;;18.60;99.90;;;;;;4992199;28;20486;-66
2022/08/20 04:58:26;;;;;;;13.47;12.07;;;18.60;99.90;;;;;;4995211;28;20447;-66
2022/08/20 05:00:56;;;;;;;14.07;12.40;;;18.60;99.90;;;;;;4995566;28;20440;-66
2022/08/20 05:03:27;;;;;;;15.70;13.90;;;18.60;99.90;;;;;;4995833;28;20436;-66
2022/08/20 05:06:00;;;;;;;15.27;12.30;;;18.60;99.90;;;;;;4995623;28;20452;-66
2022/08/20 05:08:28;;;;;;;14.87;12.60;;;18.60;99.90;;;;;;4995903;28;20451;-66
2022/08/20 05:10:56;;;;;;;16.30;14.17;;;18.60;99.90;;;;;;4995287;28;20447;-66
2022/08/20 05:13:24;;;;;;;13.93;12.50;;;18.60;99.90;;;;;;4995883;28;20441;-66
2022/08/20 05:15:51;;;;;;;16.03;12.40;;;18.60;99.90;;;;;;5004404;28;21020;-66
2022/08/20 05:18:19;;;;;;;14.10;12.67;;;18.60;99.90;;;;;;5015356;28;20431;-68
2022/08/20 05:20:49;;;;;;;17.00;12.83;;;18.60;99.90;;;;;;5006842;28;20451;-66
2022/08/20 05:23:18;;;;;;;12.90;11.60;;;18.60;99.90;;;;;;4995135;28;20444;-67
2022/08/20 05:25:50;;;;;;;15.13;12.50;;;18.60;99.90;;;;;;5002157;28;20834;-66
2022/08/20 05:28:20;;;;;;;13.43;12.00;;;18.60;99.90;;;;;;5015346;28;20526;-66
2022/08/20 05:30:49;;;;;;;15.20;12.87;;;18.60;99.90;;;;;;5007607;28;20437;-66
2022/08/20 05:33:20;;;;;;;13.63;12.23;;;18.70;99.90;;;;;;4995372;28;20554;-66
2022/08/20 05:35:51;;;;;;;15.27;13.17;;;18.70;99.90;;;;;;5001470;28;20464;-66
2022/08/20 05:38:23;;;;;;;15.93;12.93;;;18.70;99.90;;;;;;5014847;28;20445;-66
2022/08/20 05:40:51;;;;;;;14.33;12.93;;;18.70;99.90;;;;;;5008062;28;20950;-66
2022/08/20 05:43:18;;;;;;;15.33;12.77;;;18.80;99.90;;;;;;4995185;28;20558;-66
2022/08/20 05:45:51;;;;;;;14.70;13.20;;;18.80;99.90;;;;;;4992281;28;20444;-67
2022/08/20 05:48:21;;;;;;;14.77;13.23;;;18.80;99.90;;;;;;4992515;28;20988;-68
2022/08/20 05:50:53;;;;;;;13.30;11.70;;;18.90;99.90;;;;;;4993061;28;20441;-67
2022/08/20 05:53:21;;;;;;;16.03;13.40;;;19.00;99.90;;;;;;4989979;28;20432;-66
2022/08/20 05:55:49;;;;;;;15.33;13.73;;;19.00;99.90;;;;;;4992847;28;20528;-68
2022/08/20 05:58:19;;;;;;;13.97;12.63;;;19.00;99.90;;;;;;4993860;28;20489;-66
2022/08/20 06:00:47;;;;;;;14.10;12.60;;;19.10;99.90;;;;;;4991426;28;20439;-66
2022/08/20 06:06:00;;;;;;;13.50;12.10;;;19.10;99.90;;;;;;4993379;28;20429;-66
2022/08/20 06:08:28;;;;;;;14.87;13.37;;;19.10;99.90;;;;;;4993066;28;20457;-66
2022/08/20 06:10:55;;;;;;;14.43;12.97;;;19.30;99.90;;;;;;4993271;28;20437;-66
2022/08/20 06:13:22;;;;;;;14.50;12.77;;;19.30;99.90;;;;;;4992406;28;20449;-66
2022/08/20 06:15:50;;;;;;;14.77;13.37;;;19.40;99.90;;;;;;4992099;28;20866;-67
2022/08/20 06:18:17;;;;;;;13.50;12.13;;;19.50;99.90;;;;;;4992755;28;20437;-66
2022/08/20 06:20:46;;;;;;;12.83;11.47;;;19.60;99.90;;;;;;4992483;28;20778;-66
2022/08/20 06:23:15;;;;;;;11.73;10.53;;;19.70;99.90;;;;;;4992442;28;20483;-66
2022/08/20 06:25:51;;;;;;;14.60;10.50;;;19.70;99.90;;;;;;4992769;28;20444;-67
2022/08/20 06:28:18;;;;;;;11.93;10.70;;;19.70;99.90;;;;;;4991820;28;20452;-68
2022/08/20 06:30:48;;;;;;;13.33;11.93;;;19.80;99.90;;;;;;4992796;28;20447;-68
2022/08/20 06:33:15;;;;;;;12.27;11.07;;;19.90;99.90;;;;;;4992591;28;20529;-67
2022/08/20 06:35:43;;;;;;;11.13;9.13;;;20.00;99.90;;;;;;4992725;28;20510;-67
2022/08/20 06:38:11;;;;;;;11.40;10.03;;;20.00;99.90;;;;;;4991835;28;20847;-67
2022/08/20 06:40:40;;;;;;;10.93;9.83;;;20.00;99.90;;;;;;4992112;28;20453;-67
2022/08/20 06:43:07;;;;;;;12.20;11.10;;;20.10;99.90;;;;;;4992551;28;20482;-68
2022/08/20 06:45:37;;;;;;;14.03;10.33;;;20.10;99.90;;;;;;4992748;28;20449;-68
2022/08/20 06:48:11;;;;;;;10.77;9.60;;;20.20;99.90;;;;;;4992244;28;20439;-67
2022/08/20 06:50:41;;;;;;;12.10;9.73;;;20.10;99.90;;;;;;4992198;28;20439;-67
2022/08/20 06:53:14;;;;;;;12.60;10.07;;;20.10;99.90;;;;;;4992272;28;20442;-67
2022/08/20 06:55:46;;;;;;;10.70;9.20;;;20.00;99.90;;;;;;4992154;28;20446;-67
2022/08/20 06:58:14;;;;;;;11.60;10.07;;;20.10;99.90;;;;;;4991626;28;20479;-68
2022/08/20 07:00:43;;;;;;;11.10;9.70;;;20.10;99.90;;;;;;4992171;28;20439;-67
2022/08/20 07:03:12;;;;;;;11.60;9.80;;;20.10;99.90;;;;;;4991973;28;20500;-67
2022/08/20 07:05:42;;;;;;;13.57;10.03;;;20.10;99.90;;;;;;4992243;28;20478;-68
2022/08/20 07:08:10;;;;;;;11.80;10.50;;;20.10;99.90;;;;;;4992155;28;20474;-67
2022/08/20 07:10:37;;;;;;;13.63;9.50;;;20.00;99.90;;;;;;4991666;28;20471;-67
2022/08/20 07:13:06;;;;;;;11.70;10.50;;;19.90;99.90;;;;;;4991425;28;20447;-67
2022/08/20 07:15:33;;;;;;;11.50;9.63;;;19.90;99.90;;;;;;4991717;28;20455;-66
2022/08/20 07:18:03;;;;;;;12.60;9.13;;;19.80;99.90;;;;;;4991749;28;20474;-67
2022/08/20 07:20:32;;;;;;;11.27;9.37;;;19.80;99.90;;;;;;4991707;28;20442;-66
2022/08/20 07:23:00;;;;;;;11.63;10.37;;;19.70;99.90;;;;;;4991415;28;20517;-68
2022/08/20 07:25:27;;;;;;;10.83;9.70;;;19.80;99.90;;;;;;4992280;28;20471;-66
2022/08/20 07:28:00;;;;;;;14.07;11.03;;;19.80;99.90;;;;;;4992416;28;20492;-66
2022/08/20 07:33:15;;;;;;;12.20;10.90;;;20.20;99.90;;;;;;4991971;28;20554;-67
2022/08/20 07:35:52;;;;;;;10.90;9.80;;;20.40;99.90;;;;;;4991496;28;20456;-67
2022/08/20 07:38:23;;;;;;;10.30;8.80;;;20.50;99.90;;;;;;4990445;28;20435;-67
2022/08/20 07:40:51;;;;;;;10.83;9.73;;;20.70;99.90;;;;;;4991313;28;20448;-67
2022/08/20 07:43:18;;;;;;;13.00;9.77;;;20.70;99.90;;;;;;4987275;28;20899;-66
2022/08/20 07:45:47;;;;;;;12.60;9.50;;;20.70;99.90;;;;;;4989291;28;20455;-66
2022/08/20 07:48:16;;;;;;;11.43;9.27;;;20.70;99.90;;;;;;4989876;28;20498;-66
2022/08/20 07:50:43;;;;;;;10.70;9.70;;;20.80;99.90;;;;;;4990243;28;20447;-66
2022/08/20 07:53:11;;;;;;;10.90;8.80;;;20.90;99.90;;;;;;4990521;28;20475;-66
2022/08/20 07:55:40;;;;;;;9.30;8.27;;;20.90;99.90;;;;;;4990553;28;20859;-67
2022/08/20 07:58:10;;;;;;;11.17;9.40;;;21.00;99.90;;;;;;4990488;28;20454;-68
2022/08/20 08:00:39;;;;;;;10.13;8.57;;;21.00;99.90;;;;;;4992896;28;20444;-68
2022/08/20 08:03:08;;;;;;;9.50;8.50;;;21.10;99.90;;;;;;4990700;28;20483;-68
2022/08/20 08:05:38;;;;;;;10.60;9.07;;;21.20;99.90;;;;;;4990616;28;20432;-67
2022/08/20 08:08:08;;;;;;;12.60;8.73;;;21.10;98.90;;;;;;4990868;28;20444;-67
2022/08/20 08:10:36;;;;;;;10.23;9.03;;;20.90;99.10;;;;;;4990848;28;20435;-67
2022/08/20 08:13:08;;;;;;;10.43;8.40;;;20.70;99.00;;;;;;4990913;28;20468;-67
2022/08/20 08:15:39;;;;;;;8.83;7.67;;;20.70;99.60;;;;;;4990761;28;20494;-66
2022/08/20 08:18:10;;;;;;;11.17;8.73;;;20.70;99.50;;;;;;4991238;28;20447;-66
2022/08/20 08:20:40;;;;;;;8.50;7.40;;;20.60;99.30;;;;;;4990870;28;20448;-68
2022/08/20 08:23:09;;;;;;;13.03;9.90;;;20.50;99.60;;;;;;4990711;28;20859;-67
2022/08/20 08:25:37;;;;;;;11.03;9.87;;;20.50;99.80;;;;;;4990503;28;20480;-67
2022/08/20 08:28:04;;;;;;;11.50;8.10;;;20.50;99.90;;;;;;4990577;28;20447;-67
2022/08/20 08:30:32;;;;;;;10.50;9.50;;;20.40;99.90;;;;;;4990423;28;20444;-66
2022/08/20 08:35:46;;;;;;;10.03;8.00;;;20.30;99.90;;;;;;4994360;28;20435;-67
2022/08/20 08:38:14;;;;;;;9.33;7.73;;;20.30;99.90;;;;;;4992011;28;20473;-67
2022/08/20 08:40:41;;;;;;;23.57;21.20;;;20.30;99.90;;;;;;4989974;28;20443;-67
2022/08/20 08:43:10;;;;;;;8.40;7.50;;;20.40;99.90;;;;;;4992920;28;20486;-67
2022/08/20 08:45:45;;;;;;;8.57;7.67;;;20.30;99.90;;;;;;4993763;28;20522;-67
2022/08/20 08:48:15;;;;;;;11.37;10.27;;;20.30;99.90;;;;;;4992523;28;20470;-66
2022/08/20 08:50:48;;;;;;;7.77;7.00;;;20.40;99.90;;;;;;4993576;28;21036;-66
2022/08/20 08:53:21;;;;;;;9.73;8.27;;;20.50;99.90;;;;;;4994124;28;20454;-68
2022/08/20 08:55:48;;;;;;;12.47;11.17;;;20.60;99.90;;;;;;4993408;28;20447;-68
2022/08/20 08:58:15;;;;;;;11.17;8.57;;;20.60;99.90;;;;;;4990174;28;20470;-67
2022/08/20 09:00:43;;;;;;;12.13;10.93;;;20.70;99.90;;;;;;4993513;28;20439;-67
2022/08/20 09:03:16;;;;;;;9.33;8.47;;;21.00;99.90;;;;;;4993949;28;20553;-67
2022/08/20 09:05:49;;;;;;;9.67;6.30;;;21.10;99.90;;;;;;4994071;28;20443;-67
2022/08/20 09:08:20;;;;;;;11.20;9.70;;;21.30;99.40;;;;;;4993623;28;20479;-66
2022/08/20 09:10:47;;;;;;;8.00;6.33;;;21.40;99.80;;;;;;4993200;28;20444;-68
2022/08/20 09:13:14;;;;;;;7.83;5.47;;;21.40;99.50;;;;;;4990376;28;20435;-67
2022/08/20 09:15:42;;;;;;;15.53;7.10;;;21.50;99.30;;;;;;4992961;28;20854;-67
2022/08/20 09:18:09;;;;;;;7.80;6.10;;;21.50;99.00;;;;;;4995250;28;20440;-67
2022/08/20 09:20:36;;;;;;;8.80;7.90;;;21.50;98.80;;;;;;4993286;28;20806;-69
2022/08/20 09:23:07;;;;;;;8.97;8.00;;;21.50;98.80;;;;;;4991905;28;20498;-67
2022/08/20 09:25:34;;;;;;;9.73;7.40;;;21.60;99.10;;;;;;4993905;28;20459;-67
2022/08/20 09:28:01;;;;;;;7.33;6.10;;;22.20;99.90;;;;;;4993955;28;21046;-68
2022/08/20 09:30:28;;;;;;;5.83;5.30;;;22.90;99.90;;;;;;4996063;28;20439;-67
2022/08/20 09:32:59;;;;;;;6.60;4.77;;;23.40;98.30;;;;;;4993357;28;20443;-66
2022/08/20 09:35:26;;;;;;;10.50;8.77;;;23.90;95.40;;;;;;4993660;28;20447;-67
2022/08/20 09:37:54;;;;;;;9.43;8.10;;;24.10;93.10;;;;;;4992930;28;20499;-67
2022/08/20 09:40:22;;;;;;;6.93;6.23;;;24.20;92.50;;;;;;4993256;28;20850;-67
2022/08/20 09:42:50;;;;;;;6.60;4.63;;;24.50;93.90;;;;;;4992136;28;20483;-68
2022/08/20 09:45:17;;;;;;;8.20;6.47;;;24.80;92.00;;;;;;4993375;28;20450;-67
2022/08/20 09:47:45;;;;;;;5.20;4.70;;;24.80;91.20;;;;;;4992845;28;20436;-68
2022/08/20 09:50:12;;;;;;;10.03;9.13;;;24.70;89.90;;;;;;4993643;28;20448;-69
2022/08/20 09:52:44;;;;;;;14.23;13.23;;;24.50;90.30;;;;;;4993110;28;20454;-67
2022/08/20 09:55:21;;;;;;;7.50;4.60;;;24.30;90.70;;;;;;4992904;28;20458;-68
2022/08/20 09:57:50;;;;;;;5.23;4.73;;;24.20;90.50;;;;;;4992570;28;20526;-67
2022/08/20 10:00:18;;;;;;;5.07;4.57;;;24.10;90.60;;;;;;4993373;28;20443;-67
2022/08/20 10:02:46;;;;;;;5.57;4.83;;;24.00;90.70;;;;;;4991871;28;20811;-67
2022/08/20 10:05:17;;;;;;;7.03;5.90;;;24.00;90.80;;;;;;4992569;28;20498;-67
2022/08/20 10:07:45;;;;;;;6.37;4.93;;;23.90;90.20;;;;;;4997282;28;20754;-68
2022/08/20 10:10:15;;;;;;;5.40;4.90;;;23.90;90.30;;;;;;4992991;28;20518;-68
2022/08/20 10:12:47;;;;;;;4.73;4.10;;;23.90;90.20;;;;;;4993183;28;20967;-67
2022/08/20 10:15:18;;;;;;;6.27;4.97;;;24.10;90.80;;;;;;4994866;28;20848;-67
2022/08/20 10:18:04;;;;;;;7.23;4.87;;;24.60;91.80;;;;;;4988794;28;20439;-67
2022/08/20 10:20:32;;;;;;;6.53;5.83;;;25.20;92.00;;;;;;4992454;28;20872;-70
2022/08/20 10:23:00;;;;;;;6.70;4.00;;;25.90;91.10;;;;;;4991132;28;20479;-67
2022/08/20 10:25:32;;;;;;;5.87;4.20;;;26.40;88.50;;;;;;4988866;28;20842;-67
2022/08/20 10:28:00;;;;;;;7.00;4.70;;;26.90;86.70;;;;;;4992702;28;20440;-68
2022/08/20 10:30:29;;;;;;;8.87;5.50;;;27.30;85.30;;;;;;4992632;28;20566;-67
2022/08/20 10:33:00;;;;;;;16.10;14.70;;;27.60;84.10;;;;;;4992941;28;20494;-67
2022/08/20 10:35:28;;;;;;;6.10;5.50;;;27.80;83.70;;;;;;4993842;28;20795;-69
2022/08/20 10:37:57;;;;;;;4.57;3.90;;;28.10;83.00;;;;;;4988414;28;20443;-67
2022/08/20 10:40:27;;;;;;;11.33;4.37;;;28.50;80.80;;;;;;4992698;28;20523;-67
2022/08/20 10:42:54;;;;;;;4.07;3.50;;;28.90;77.90;;;;;;4992501;28;20487;-67
2022/08/20 10:45:24;;;;;;;5.90;5.20;;;29.10;69.80;;;;;;4991757;28;20842;-67
2022/08/20 10:47:52;;;;;;;5.57;4.90;;;29.20;71.00;;;;;;4990935;28;20456;-67
2022/08/20 10:50:19;;;;;;;6.93;4.57;;;29.40;70.20;;;;;;4992132;28;20448;-67
2022/08/20 10:52:47;;;;;;;6.97;4.13;;;29.40;68.10;;;;;;4991960;28;20475;-68
2022/08/20 10:55:14;;;;;;;3.80;3.13;;;29.30;69.60;;;;;;4990635;28;20820;-67
2022/08/20 10:57:42;;;;;;;4.33;3.40;;;29.50;69.10;;;;;;4992330;28;20472;-67
2022/08/20 11:00:11;;;;;;;7.03;4.50;;;29.70;67.50;;;;;;4992539;28;20545;-67
2022/08/20 11:02:44;;;;;;;5.77;3.50;;;29.80;64.50;;;;;;4991965;28;20486;-67
2022/08/20 11:05:12;;;;;;;12.03;10.83;;;29.70;63.40;;;;;;4992346;28;20861;-67
2022/08/20 11:07:44;;;;;;;6.23;4.57;;;29.50;62.70;;;;;;4992613;28;20866;-69
2022/08/20 11:10:12;;;;;;;8.30;5.40;;;29.30;61.10;;;;;;4992134;28;20915;-67
2022/08/20 11:12:44;;;;;;;7.00;6.30;;;29.10;61.10;;;;;;4992446;28;20471;-67
2022/08/20 11:15:11;;;;;;;4.10;3.60;;;28.90;61.70;;;;;;4992261;28;20530;-67
2022/08/20 11:17:41;;;;;;;4.57;3.77;;;28.80;62.20;;;;;;4992014;28;20439;-67
2022/08/20 11:20:10;;;;;;;5.83;4.43;;;28.70;61.00;;;;;;4992342;28;20479;-67
2022/08/20 11:22:39;;;;;;;3.73;3.23;;;28.60;60.40;;;;;;4992521;28;20526;-66
2022/08/20 11:25:07;;;;;;;11.30;3.33;;;28.30;59.80;;;;;;4991205;28;20569;-67
2022/08/20 11:27:37;;;;;;;4.30;3.27;;;28.00;60.00;;;;;;4992248;28;20529;-67
2022/08/20 11:30:06;;;;;;;4.67;3.70;;;27.60;60.70;;;;;;4992285;28;20455;-67
2022/08/20 11:32:37;;;;;;;6.30;3.13;;;27.30;62.00;;;;;;4992073;28;20463;-68
2022/08/20 11:35:09;;;;;;;4.67;3.60;;;27.00;63.20;;;;;;4992289;28;20918;-66
2022/08/20 11:37:37;;;;;;;6.67;4.20;;;26.70;66.00;;;;;;4991368;28;20435;-69
2022/08/20 11:40:07;;;;;;;6.80;4.53;;;26.30;69.60;;;;;;4987064;28;20462;-66
2022/08/20 11:42:34;;;;;;;6.10;4.03;;;25.90;72.30;;;;;;4992132;28;20436;-66
2022/08/20 11:45:01;;;;;;;5.37;3.93;;;25.50;74.20;;;;;;4988775;28;20471;-66
2022/08/20 11:47:31;;;;;;;5.23;4.10;;;25.10;78.10;;;;;;4993612;28;20494;-69
2022/08/20 11:49:59;;;;;;;6.27;5.10;;;24.70;80.20;;;;;;4990814;28;21211;-65
2022/08/20 11:52:34;;;;;;;6.47;4.60;;;24.50;83.00;;;;;;4991374;28;20529;-66
2022/08/20 11:55:04;;;;;;;5.47;4.60;;;24.30;84.10;;;;;;4991227;28;20467;-68
2022/08/20 11:57:35;;;;;;;5.13;4.63;;;24.20;86.60;;;;;;4987418;28;20864;-65
2022/08/20 12:00:08;;;;;;;7.93;5.40;;;24.00;88.10;;;;;;4989954;28;20436;-69
2022/08/20 12:02:36;;;;;;;6.90;4.53;;;24.10;90.70;;;;;;4990554;28;21009;-66
2022/08/20 12:05:03;;;;;;;6.00;4.17;;;24.40;90.80;;;;;;4990970;28;20479;-65
2022/08/20 12:07:31;;;;;;;5.20;3.90;;;24.70;91.30;;;;;;4994256;28;20479;-65
2022/08/20 12:09:58;;;;;;;5.60;4.23;;;25.10;90.80;;;;;;4994223;28;20834;-67
2022/08/20 12:12:26;;;;;;;4.07;3.67;;;25.40;87.90;;;;;;4995542;28;20427;-66
2022/08/20 12:14:55;;;;;;;4.90;3.73;;;25.70;87.60;;;;;;4995716;28;20447;-66
2022/08/20 12:17:24;;;;;;;4.17;3.43;;;26.10;87.30;;;;;;4994879;28;20436;-65
2022/08/20 12:19:53;;;;;;;4.43;3.87;;;26.40;83.40;;;;;;4993615;28;20523;-66
2022/08/20 12:22:20;;;;;;;4.17;3.37;;;26.50;80.60;;;;;;4992498;28;20779;-67
2022/08/20 12:24:48;;;;;;;5.93;4.30;;;26.60;77.60;;;;;;4986648;28;20519;-71
2022/08/20 12:27:18;;;;;;;5.10;4.60;;;26.70;77.90;;;;;;4992956;28;20531;-67
2022/08/20 12:29:47;;;;;;;5.50;4.43;;;26.80;76.90;;;;;;4997061;28;20440;-66
2022/08/20 12:32:15;;;;;;;5.87;3.90;;;26.80;77.00;;;;;;4994964;28;20506;-66
2022/08/20 12:34:43;;;;;;;4.23;3.60;;;26.80;73.50;;;;;;4994179;28;20479;-66
2022/08/20 12:37:12;;;;;;;4.47;3.20;;;26.90;76.70;;;;;;4994214;28;20459;-66
2022/08/20 12:39:40;;;;;;;4.13;3.63;;;27.10;76.10;;;;;;4991857;28;20451;-66
2022/08/20 12:42:09;;;;;;;5.33;4.10;;;27.20;74.90;;;;;;4994952;28;20452;-66
2022/08/20 12:44:37;;;;;;;5.10;3.70;;;27.20;75.00;;;;;;4994556;28;20483;-66
2022/08/20 12:47:10;;;;;;;5.43;3.97;;;27.30;76.40;;;;;;4998457;28;20872;-67
2022/08/20 12:49:40;;;;;;;5.23;4.73;;;27.30;77.90;;;;;;4994864;28;20518;-66
2022/08/20 12:52:07;;;;;;;4.80;4.20;;;27.20;77.30;;;;;;4994353;28;20522;-66
2022/08/20 12:54:34;;;;;;;5.17;4.00;;;26.90;77.70;;;;;;4996108;28;20526;-66